createdAt,value
2022-08-14T00:01:31.608Z,100359.59
2022-08-14T00:03:58.551Z,100365.78
2022-08-14T00:06:28.710Z,100359.06
2022-08-14T00:08:59.230Z,100356.50
2022-08-14T00:11:28.765Z,100361.84
2022-08-14T00:14:01.495Z,100354.84
2022-08-14T00:16:40.975Z,100349.88
2022-08-14T00:19:18.826Z,100353.47
2022-08-14T00:21:51.670Z,100349.81
2022-08-14T00:24:23.363Z,100345.34
2022-08-14T00:27:02.153Z,100334.44
2022-08-14T00:29:33.182Z,100340.53
2022-08-14T00:32:53.009Z,100328.44
2022-08-14T00:34:56.364Z,100326.28
2022-08-14T00:37:23.237Z,100317.69
2022-08-14T00:39:51.218Z,100323.84
2022-08-14T00:42:55.551Z,100324.91
2022-08-14T00:45:12.392Z,100326.13
2022-08-14T00:47:44.950Z,100324.56
2022-08-14T00:50:17.832Z,100320.22
2022-08-14T00:52:52.146Z,100316.59
2022-08-14T00:55:20.318Z,100313.88
2022-08-14T00:58:11.335Z,100313.84
2022-08-14T01:00:47.270Z,100311.97
2022-08-14T01:03:22.103Z,100314.75
2022-08-14T01:05:52.484Z,100315.38
2022-08-14T01:08:51.355Z,100313.13
2022-08-14T01:11:18.953Z,100302.84
2022-08-14T01:13:55.807Z,100293.22
2022-08-14T01:16:30.763Z,100290.72
2022-08-14T01:19:17.099Z,100293.22
2022-08-14T01:21:52.722Z,100287.78
2022-08-14T01:24:30.599Z,100284.91
2022-08-14T01:27:01.574Z,100281.88
2022-08-14T01:29:58.626Z,100282.69
2022-08-14T01:32:24.345Z,100276.25
2022-08-14T01:35:17.181Z,100273.50
2022-08-14T01:37:56.407Z,100266.59
2022-08-14T01:40:37.227Z,100269.84
2022-08-14T01:43:21.991Z,100267.75
2022-08-14T01:45:57.578Z,100265.56
2022-08-14T01:48:33.987Z,100262.63
2022-08-14T01:51:18.320Z,100260.38
2022-08-14T01:53:50.419Z,100252.75
2022-08-14T01:56:37.297Z,100255.81
2022-08-14T01:59:09.806Z,100255.44
2022-08-14T02:01:37.860Z,100246.47
2022-08-14T02:04:40.738Z,100246.75
2022-08-14T02:06:57.214Z,100241.91
2022-08-14T02:09:24.417Z,100238.56
2022-08-14T02:11:54.585Z,100236.03
2022-08-14T02:14:31.804Z,100228.09
2022-08-14T02:17:00.027Z,100230.97
2022-08-14T02:19:32.241Z,100224.50
2022-08-14T02:22:02.891Z,100210.69
2022-08-14T02:24:38.976Z,100219.88
2022-08-14T02:28:22.348Z,100217.63
2022-08-14T02:30:01.179Z,100209.53
2022-08-14T02:32:36.454Z,100210.66
2022-08-14T02:35:16.342Z,100208.84
2022-08-14T02:37:48.396Z,100213.47
2022-08-14T02:40:18.524Z,100218.50
2022-08-14T02:42:54.996Z,100205.13
2022-08-14T02:45:37.915Z,100207.81
2022-08-14T02:48:10.165Z,100204.31
2022-08-14T02:50:54.351Z,100203.09
2022-08-14T02:53:20.960Z,100191.97
2022-08-14T02:55:47.610Z,100196.66
2022-08-14T02:58:21.541Z,100193.63
2022-08-14T03:00:58.432Z,100202.75
2022-08-14T03:03:26.295Z,100201.09
2022-08-14T03:05:54.207Z,100201.03
2022-08-14T03:08:21.965Z,100193.56
2022-08-14T03:10:50.215Z,100193.44
2022-08-14T03:13:21.525Z,100196.63
2022-08-14T03:15:55.858Z,100197.97
2022-08-14T03:18:31.441Z,100196.97
2022-08-14T03:21:05.996Z,100201.50
2022-08-14T03:23:38.306Z,100199.38
2022-08-14T03:26:29.948Z,100194.16
2022-08-14T03:29:01.056Z,100187.38
2022-08-14T03:31:29.256Z,100194.09
2022-08-14T03:33:56.752Z,100197.03
2022-08-14T03:37:38.432Z,100194.09
2022-08-14T03:39:22.279Z,100197.47
2022-08-14T03:41:53.580Z,100192.94
2022-08-14T03:45:19.679Z,100189.38
2022-08-14T03:47:08.122Z,100189.75
2022-08-14T03:49:35.265Z,100183.50
2022-08-14T03:52:37.895Z,100187.06
2022-08-14T03:54:55.266Z,100179.81
2022-08-14T03:57:22.849Z,100184.31
2022-08-14T03:59:50.857Z,100194.34
2022-08-14T04:02:32.985Z,100183.72
2022-08-14T04:05:11.784Z,100184.88
2022-08-14T04:07:41.642Z,100178.13
2022-08-14T04:10:17.607Z,100185.94
2022-08-14T04:13:03.745Z,100188.19
2022-08-14T04:15:31.752Z,100191.53
2022-08-14T04:18:03.422Z,100185.34
2022-08-14T04:20:31.283Z,100192.66
2022-08-14T04:22:57.900Z,100186.81
2022-08-14T04:25:24.680Z,100185.47
2022-08-14T04:28:02.536Z,100188.59
2022-08-14T04:30:33.205Z,100184.44
2022-08-14T04:33:06.449Z,100178.56
2022-08-14T04:35:56.540Z,100175.75
2022-08-14T04:38:41.750Z,100174.31
2022-08-14T04:41:30.354Z,100179.41
2022-08-14T04:43:57.758Z,100179.72
2022-08-14T04:46:54.691Z,100176.03
2022-08-14T04:49:15.055Z,100188.09
2022-08-14T04:51:46.857Z,100183.31
2022-08-14T04:54:26.873Z,100174.91
2022-08-14T04:56:54.991Z,100181.66
2022-08-14T04:59:23.993Z,100178.81
2022-08-14T05:01:56.348Z,100172.41
2022-08-14T05:04:24.992Z,100168.19
2022-08-14T05:06:54.248Z,100165.97
2022-08-14T05:09:28.983Z,100165.41
2022-08-14T05:11:56.448Z,100164.88
2022-08-14T05:14:53.302Z,100172.75
2022-08-14T05:17:28.616Z,100163.97
2022-08-14T05:21:05.098Z,100176.06
2022-08-14T05:22:42.756Z,100168.81
2022-08-14T05:25:09.533Z,100165.94
2022-08-14T05:27:37.113Z,100166.72
2022-08-14T05:30:06.927Z,100163.56
2022-08-14T05:32:35.622Z,100162.97
2022-08-14T05:35:04.060Z,100165.25
2022-08-14T05:37:31.128Z,100161.81
2022-08-14T05:39:59.035Z,100161.88
2022-08-14T05:42:32.076Z,100158.47
2022-08-14T05:45:01.548Z,100161.88
2022-08-14T05:47:28.835Z,100150.19
2022-08-14T05:50:01.755Z,100148.56
2022-08-14T05:52:39.265Z,100145.88
2022-08-14T05:55:08.779Z,100150.56
2022-08-14T05:57:49.527Z,100148.44
2022-08-14T06:00:28.973Z,100149.19
2022-08-14T06:03:00.377Z,100149.44
2022-08-14T06:05:28.686Z,100142.66
2022-08-14T06:08:00.157Z,100143.66
2022-08-14T06:10:29.021Z,100150.66
2022-08-14T06:12:58.114Z,100147.34
2022-08-14T06:15:29.902Z,100151.50
2022-08-14T06:17:59.085Z,100143.88
2022-08-14T06:20:28.260Z,100151.47
2022-08-14T06:22:56.267Z,100150.19
2022-08-14T06:25:23.882Z,100149.44
2022-08-14T06:27:52.108Z,100137.91
2022-08-14T06:30:21.480Z,100137.19
2022-08-14T06:32:52.377Z,100141.63
2022-08-14T06:35:20.845Z,100138.44
2022-08-14T06:37:59.438Z,100148.47
2022-08-14T06:40:34.290Z,100144.16
2022-08-14T06:43:08.079Z,100147.44
2022-08-14T06:45:37.000Z,100143.13
2022-08-14T06:48:17.325Z,100140.53
2022-08-14T06:50:45.424Z,100140.53
2022-08-14T06:53:14.652Z,100142.97
2022-08-14T06:55:57.960Z,100142.94
2022-08-14T06:58:30.797Z,100141.50
2022-08-14T07:01:25.048Z,100141.78
2022-08-14T07:04:24.166Z,100130.16
2022-08-14T07:06:58.988Z,100136.84
2022-08-14T07:09:28.039Z,100146.34
2022-08-14T07:11:54.835Z,100129.97
2022-08-14T07:14:23.014Z,100127.91
2022-08-14T07:16:49.734Z,100129.19
2022-08-14T07:19:20.750Z,100130.28
2022-08-14T07:21:48.150Z,100132.16
2022-08-14T07:24:21.784Z,100134.81
2022-08-14T07:26:49.170Z,100132.31
2022-08-14T07:29:17.723Z,100127.19
2022-08-14T07:31:49.913Z,100130.91
2022-08-14T07:34:26.403Z,100122.38
2022-08-14T07:37:03.895Z,100128.13
2022-08-14T07:39:30.713Z,100127.16
2022-08-14T07:42:01.898Z,100127.19
2022-08-14T07:44:35.646Z,100124.28
2022-08-14T07:47:12.868Z,100127.63
2022-08-14T07:49:41.569Z,100125.00
2022-08-14T07:52:10.561Z,100119.78
2022-08-14T07:54:41.210Z,100117.63
2022-08-14T07:57:12.551Z,100126.28
2022-08-14T07:59:47.138Z,100118.06
2022-08-14T08:02:19.283Z,100112.72
2022-08-14T08:04:54.393Z,100098.00
2022-08-14T08:07:29.491Z,100101.16
2022-08-14T08:09:58.049Z,100101.78
2022-08-14T08:12:31.216Z,100096.25
2022-08-14T08:15:03.040Z,100095.19
2022-08-14T08:17:42.485Z,100087.13
2022-08-14T08:20:19.927Z,100092.72
2022-08-14T08:22:50.002Z,100085.47
2022-08-14T08:25:26.128Z,100092.66
2022-08-14T08:28:08.057Z,100085.41
2022-08-14T08:30:38.161Z,100085.00
2022-08-14T08:33:16.863Z,100082.19
2022-08-14T08:35:50.381Z,100082.16
2022-08-14T08:40:31.221Z,100083.75
2022-08-14T08:42:59.309Z,100078.91
2022-08-14T08:45:27.658Z,100065.44
2022-08-14T08:47:55.123Z,100065.72
2022-08-14T08:53:02.018Z,100062.31
2022-08-14T08:55:30.448Z,100067.91
2022-08-14T08:58:04.411Z,100071.06
2022-08-14T09:00:35.060Z,100072.34
2022-08-14T09:03:05.963Z,100078.44
2022-08-14T09:05:34.397Z,100081.75
2022-08-14T09:08:30.479Z,100079.97
2022-08-14T09:11:02.487Z,100077.56
2022-08-14T09:13:45.466Z,100078.88
2022-08-14T09:16:18.491Z,100088.94
2022-08-14T09:18:46.773Z,100077.56
2022-08-14T09:21:16.112Z,100071.25
2022-08-14T09:24:27.459Z,100069.28
2022-08-14T09:26:30.105Z,100066.13
2022-08-14T09:28:59.228Z,100060.38
2022-08-14T09:31:27.309Z,100053.41
2022-08-14T09:34:26.995Z,100055.97
2022-08-14T09:37:25.644Z,100043.50
2022-08-14T09:40:11.148Z,100053.56
2022-08-14T09:43:14.873Z,100048.66
2022-08-14T09:45:53.021Z,100049.09
2022-08-14T09:48:27.989Z,100041.41
2022-08-14T09:54:18.290Z,100035.53
2022-08-14T09:56:30.122Z,100023.94
2022-08-14T09:59:10.606Z,100028.88
2022-08-14T10:01:40.375Z,100019.00
2022-08-14T10:04:33.602Z,100029.88
2022-08-14T10:07:02.679Z,100022.38
2022-08-14T10:09:33.149Z,100021.56
2022-08-14T10:12:00.535Z,100023.75
2022-08-14T10:14:35.768Z,100015.88
2022-08-14T10:17:05.978Z,100007.09
2022-08-14T10:19:35.855Z,99999.59
2022-08-14T10:23:11.802Z,99996.25
2022-08-14T10:24:54.731Z,99983.63
2022-08-14T10:27:24.384Z,99977.78
2022-08-14T10:29:54.394Z,99967.81
2022-08-14T10:32:28.377Z,99968.84
2022-08-14T10:35:13.529Z,99970.50
2022-08-14T10:37:48.566Z,99970.00
2022-08-14T10:40:43.753Z,99957.50
2022-08-14T10:43:25.362Z,99953.84
2022-08-14T10:45:59.859Z,99957.69
2022-08-14T10:49:04.319Z,99967.00
2022-08-14T10:51:39.896Z,99974.31
2022-08-14T10:54:26.317Z,99961.81
2022-08-14T10:57:11.438Z,99960.34
2022-08-14T11:00:02.257Z,99956.66
2022-08-14T11:02:54.083Z,99956.69
2022-08-14T11:05:23.487Z,99957.84
2022-08-14T11:07:57.053Z,99948.94
2022-08-14T11:10:54.084Z,99952.25
2022-08-14T11:13:27.309Z,99944.59
2022-08-14T11:16:02.170Z,99941.41
2022-08-14T11:18:37.006Z,99939.06
2022-08-14T11:21:09.494Z,99936.84
2022-08-14T11:23:41.380Z,99936.16
2022-08-14T11:26:12.393Z,99932.25
2022-08-14T11:28:47.974Z,99935.13
2022-08-14T11:31:24.123Z,99938.09
2022-08-14T11:33:55.256Z,99921.25
2022-08-14T11:36:57.308Z,99922.25
2022-08-14T11:39:22.866Z,99923.31
2022-08-14T11:42:57.143Z,99902.66
2022-08-14T11:44:51.228Z,99894.72
2022-08-14T11:47:20.711Z,99901.47
2022-08-14T11:49:48.180Z,99904.00
2022-08-14T11:52:19.289Z,99903.28
2022-08-14T11:54:57.905Z,99900.38
2022-08-14T11:57:24.989Z,99907.91
2022-08-14T12:00:04.866Z,99894.78
2022-08-14T12:03:03.194Z,99898.72
2022-08-14T12:05:52.244Z,99894.03
2022-08-14T12:08:24.646Z,99897.19
2022-08-14T12:10:57.089Z,99897.25
2022-08-14T12:13:27.355Z,99901.34
2022-08-14T12:16:00.845Z,99893.81
2022-08-14T12:18:34.581Z,99898.34
2022-08-14T12:21:15.715Z,99887.38
2022-08-14T12:23:50.549Z,99886.31
2022-08-14T12:26:39.206Z,99887.25
2022-08-14T12:29:13.333Z,99873.75
2022-08-14T12:31:47.018Z,99872.91
2022-08-14T12:34:20.139Z,99872.38
2022-08-14T12:36:49.681Z,99861.72
2022-08-14T12:39:23.866Z,99860.88
2022-08-14T12:41:57.150Z,99850.63
2022-08-14T12:44:32.231Z,99863.50
2022-08-14T12:47:03.374Z,99863.63
2022-08-14T12:49:34.290Z,99851.44
2022-08-14T12:52:02.874Z,99847.88
2022-08-14T12:54:32.234Z,99848.16
2022-08-14T12:57:20.226Z,99839.13
2022-08-14T12:59:49.601Z,99826.53
2022-08-14T13:02:26.948Z,99818.53
2022-08-14T13:04:56.825Z,99807.88
2022-08-14T13:07:27.144Z,99801.63
2022-08-14T13:10:00.691Z,99801.94
2022-08-14T13:13:12.401Z,99799.41
2022-08-14T13:15:38.168Z,99794.25
2022-08-14T13:18:10.622Z,99787.34
2022-08-14T13:20:44.174Z,99788.88
2022-08-14T13:23:18.990Z,99781.22
2022-08-14T13:25:58.025Z,99779.56
2022-08-14T13:28:32.859Z,99776.56
2022-08-14T13:31:11.056Z,99775.19
2022-08-14T13:33:40.677Z,99767.53
2022-08-14T13:36:09.327Z,99765.50
2022-08-14T13:38:36.750Z,99754.53
2022-08-14T13:41:04.133Z,99754.59
2022-08-14T13:43:36.868Z,99746.25
2022-08-14T13:46:19.482Z,99744.81
2022-08-14T13:48:47.202Z,99743.28
2022-08-14T13:51:16.428Z,99738.06
2022-08-14T13:54:06.965Z,99734.66
2022-08-14T13:56:39.869Z,99725.19
2022-08-14T13:59:07.460Z,99730.50
2022-08-14T14:01:42.977Z,99726.63
2022-08-14T14:04:19.310Z,99721.06
2022-08-14T14:06:51.141Z,99712.06
2022-08-14T14:09:52.414Z,99712.63
2022-08-14T14:12:38.079Z,99717.63
2022-08-14T14:15:10.221Z,99715.38
2022-08-14T14:17:39.496Z,99714.31
2022-08-14T14:20:15.126Z,99707.22
2022-08-14T14:23:02.505Z,99699.63
2022-08-14T14:25:45.775Z,99708.19
2022-08-14T14:28:16.712Z,99703.03
2022-08-14T14:30:54.615Z,99704.13
2022-08-14T14:33:46.719Z,99700.38
2022-08-14T14:36:21.378Z,99694.66
2022-08-14T14:38:52.605Z,99690.28
2022-08-14T14:41:22.413Z,99692.09
2022-08-14T14:43:51.818Z,99703.66
2022-08-14T14:46:20.354Z,99700.13
2022-08-14T14:48:54.208Z,99693.59
2022-08-14T14:51:22.053Z,99691.81
2022-08-14T14:53:48.934Z,99686.59
2022-08-14T14:56:50.916Z,99689.91
2022-08-14T14:59:02.301Z,99687.91
2022-08-14T15:01:28.929Z,99687.41
2022-08-14T15:03:56.442Z,99687.69
2022-08-14T15:06:29.050Z,99682.59
2022-08-14T15:08:59.558Z,99672.94
2022-08-14T15:11:30.049Z,99672.47
2022-08-14T15:13:58.030Z,99684.00
2022-08-14T15:16:24.960Z,99680.59
2022-08-14T15:18:52.949Z,99676.22
2022-08-14T15:21:19.789Z,99669.81
2022-08-14T15:23:48.945Z,99680.94
2022-08-14T15:26:31.062Z,99668.75
2022-08-14T15:29:08.374Z,99679.75
2022-08-14T15:31:36.495Z,99675.97
2022-08-14T15:34:45.697Z,99669.84
2022-08-14T15:36:59.155Z,99679.06
2022-08-14T15:39:29.357Z,99663.56
2022-08-14T15:42:00.200Z,99672.06
2022-08-14T15:44:31.137Z,99658.47
2022-08-14T15:47:01.718Z,99655.50
2022-08-14T15:49:34.648Z,99654.22
2022-08-14T15:52:03.152Z,99647.00
2022-08-14T15:54:31.645Z,99645.91
2022-08-14T15:57:08.623Z,99650.41
2022-08-14T15:59:55.590Z,99640.94
2022-08-14T16:02:24.524Z,99629.38
2022-08-14T16:04:55.070Z,99626.53
2022-08-14T16:07:22.256Z,99625.53
2022-08-14T16:10:11.825Z,99633.84
2022-08-14T16:12:52.530Z,99632.38
2022-08-14T16:15:21.383Z,99621.22
2022-08-14T16:17:48.545Z,99624.50
2022-08-14T16:20:42.008Z,99624.75
2022-08-14T16:23:10.424Z,99622.56
2022-08-14T16:25:42.280Z,99625.88
2022-08-14T16:28:10.329Z,99617.16
2022-08-14T16:30:55.321Z,99616.44
2022-08-14T16:33:56.894Z,99613.09
2022-08-14T16:36:26.581Z,99615.03
2022-08-14T16:39:00.483Z,99606.84
2022-08-14T16:41:28.490Z,99616.53
2022-08-14T16:44:05.749Z,99609.81
2022-08-14T16:46:44.482Z,99602.31
2022-08-14T16:49:14.271Z,99603.41
2022-08-14T16:51:42.805Z,99607.50
2022-08-14T16:54:34.396Z,99601.66
2022-08-14T16:57:23.109Z,99601.44
2022-08-14T16:59:57.903Z,99593.72
2022-08-14T17:02:42.897Z,99589.84
2022-08-14T17:05:20.898Z,99595.31
2022-08-14T17:08:24.069Z,99579.88
2022-08-14T17:11:10.259Z,99582.72
2022-08-14T17:13:58.229Z,99585.56
2022-08-14T17:16:30.925Z,99583.31
2022-08-14T17:19:01.732Z,99572.09
2022-08-14T17:21:32.453Z,99578.13
2022-08-14T17:24:56.498Z,99590.66
2022-08-14T17:26:55.039Z,99578.72
2022-08-14T17:29:31.380Z,99577.41
2022-08-14T17:32:06.503Z,99573.97
2022-08-14T17:34:51.891Z,99576.09
2022-08-14T17:37:37.175Z,99567.00
2022-08-14T17:40:15.795Z,99564.03
2022-08-14T17:42:50.953Z,99563.22
2022-08-14T17:45:26.976Z,99570.41
2022-08-14T17:47:59.127Z,99569.47
2022-08-14T17:50:59.291Z,99568.84
2022-08-14T17:53:27.353Z,99562.09
2022-08-14T17:56:02.480Z,99564.63
2022-08-14T17:58:38.600Z,99561.75
2022-08-14T18:01:13.303Z,99559.44
2022-08-14T18:03:50.272Z,99559.22
2022-08-14T18:06:39.103Z,99555.91
2022-08-14T18:09:24.578Z,99567.94
2022-08-14T18:11:57.948Z,99566.88
2022-08-14T18:14:32.826Z,99562.72
2022-08-14T18:17:16.101Z,99573.69
2022-08-14T18:19:44.590Z,99565.06
2022-08-14T18:22:31.424Z,99573.31
2022-08-14T18:25:02.303Z,99568.31
2022-08-14T18:27:43.574Z,99565.03
2022-08-14T18:30:33.579Z,99564.91
2022-08-14T18:33:21.948Z,99565.03
2022-08-14T18:35:58.484Z,99564.03
2022-08-14T18:38:46.494Z,99556.41
2022-08-14T18:41:36.948Z,99560.13
2022-08-14T18:44:10.731Z,99559.44
2022-08-14T18:47:10.176Z,99547.41
2022-08-14T18:49:57.878Z,99557.56
2022-08-14T18:52:34.456Z,99553.06
2022-08-14T18:55:17.315Z,99551.31
2022-08-14T18:57:59.967Z,99557.16
2022-08-14T19:00:32.968Z,99558.88
2022-08-14T19:03:04.169Z,99557.25
2022-08-14T19:05:47.658Z,99553.91
2022-08-14T19:08:18.354Z,99551.78
2022-08-14T19:10:49.232Z,99561.78
2022-08-14T19:13:47.945Z,99562.81
2022-08-14T19:16:22.904Z,99556.19
2022-08-14T19:19:00.026Z,99552.25
2022-08-14T19:21:32.685Z,99564.09
2022-08-14T19:24:27.083Z,99560.09
2022-08-14T19:27:24.850Z,99553.47
2022-08-14T19:30:20.325Z,99563.81
2022-08-14T19:32:52.208Z,99560.47
2022-08-14T19:35:55.089Z,99560.81
2022-08-14T19:38:49.388Z,99567.72
2022-08-14T19:41:29.129Z,99562.84
2022-08-14T19:44:10.654Z,99567.31
2022-08-14T19:47:00.984Z,99570.28
2022-08-14T19:50:30.243Z,99572.81
2022-08-14T19:52:37.363Z,99572.94
2022-08-14T19:55:20.074Z,99569.75
2022-08-14T19:57:52.433Z,99567.44
2022-08-14T20:00:29.359Z,99561.78
2022-08-14T20:03:11.771Z,99559.53
2022-08-14T20:05:46.134Z,99568.19
2022-08-14T20:09:06.468Z,99561.19
2022-08-14T20:11:16.008Z,99569.59
2022-08-14T20:14:10.396Z,99563.13
2022-08-14T20:16:44.546Z,99561.63
2022-08-14T20:19:34.826Z,99551.72
2022-08-14T20:22:35.101Z,99555.38
2022-08-14T20:24:54.116Z,99552.56
2022-08-14T20:27:33.281Z,99547.19
2022-08-14T20:30:33.905Z,99557.47
2022-08-14T20:33:08.038Z,99554.13
2022-08-14T20:35:43.336Z,99555.00
2022-08-14T20:38:29.277Z,99552.69
2022-08-14T20:41:06.659Z,99556.19
2022-08-14T20:43:55.885Z,99548.53
2022-08-14T20:46:30.071Z,99554.09
2022-08-14T20:49:03.801Z,99548.78
2022-08-14T20:51:54.856Z,99548.59
2022-08-14T20:54:34.204Z,99554.44
2022-08-14T20:57:11.359Z,99557.72
2022-08-14T20:59:43.501Z,99556.22
2022-08-14T21:02:30.379Z,99553.94
2022-08-14T21:05:16.308Z,99550.28
2022-08-14T21:07:50.523Z,99553.41
2022-08-14T21:10:34.168Z,99557.50
2022-08-14T21:13:25.787Z,99548.34
2022-08-14T21:15:57.764Z,99553.22
2022-08-14T21:18:47.496Z,99547.28
2022-08-14T21:21:25.637Z,99545.97
2022-08-14T21:24:39.009Z,99557.25
2022-08-14T21:27:02.108Z,99541.81
2022-08-14T21:29:40.972Z,99548.59
2022-08-14T21:32:34.061Z,99549.44
2022-08-14T21:35:06.223Z,99548.44
2022-08-14T21:37:44.934Z,99545.56
2022-08-14T21:40:18.681Z,99544.06
2022-08-14T21:43:02.179Z,99542.06
2022-08-14T21:45:31.791Z,99541.41
2022-08-14T21:48:10.808Z,99531.44
2022-08-14T21:50:59.897Z,99533.91
2022-08-14T21:53:31.149Z,99542.28
2022-08-14T21:55:58.284Z,99530.78
2022-08-14T21:58:52.921Z,99535.56
2022-08-14T22:01:15.836Z,99536.25
2022-08-14T22:03:46.862Z,99535.56
2022-08-14T22:06:28.803Z,99534.03
2022-08-14T22:08:57.911Z,99528.44
2022-08-14T22:11:25.540Z,99535.91
2022-08-14T22:13:56.181Z,99523.75
2022-08-14T22:17:01.868Z,99527.19
2022-08-14T22:19:19.722Z,99520.09
2022-08-14T22:21:47.960Z,99513.28
2022-08-14T22:24:37.739Z,99512.09
2022-08-14T22:27:06.908Z,99505.56
2022-08-14T22:29:34.314Z,99508.75
2022-08-14T22:32:01.881Z,99502.13
2022-08-14T22:34:33.781Z,99500.47
2022-08-14T22:37:01.471Z,99502.13
2022-08-14T22:40:17.808Z,99496.13
2022-08-14T22:42:21.571Z,99488.28
2022-08-14T22:44:50.999Z,99495.19
2022-08-14T22:47:19.239Z,99494.00
2022-08-14T22:50:31.202Z,99488.63
2022-08-14T22:52:39.706Z,99483.78
2022-08-14T22:55:07.861Z,99478.78
2022-08-14T22:57:41.940Z,99485.19
2022-08-14T23:00:15.117Z,99488.47
2022-08-14T23:02:44.735Z,99485.59
2022-08-14T23:05:13.001Z,99480.81
2022-08-14T23:08:56.967Z,99490.94
2022-08-14T23:10:33.961Z,99487.09
2022-08-14T23:13:04.126Z,99483.59
2022-08-14T23:15:33.413Z,99473.31
2022-08-14T23:18:03.261Z,99476.94
2022-08-14T23:20:31.767Z,99470.84
2022-08-14T23:22:58.688Z,99467.97
2022-08-14T23:25:57.159Z,99468.22
2022-08-14T23:28:35.043Z,99470.16
2022-08-14T23:31:12.447Z,99460.66
2022-08-14T23:33:46.265Z,99458.94
2022-08-14T23:36:28.233Z,99455.50
2022-08-14T23:39:00.145Z,99461.56
2022-08-14T23:41:26.887Z,99451.59
2022-08-14T23:44:15.090Z,99461.41
2022-08-14T23:46:44.120Z,99448.13
2022-08-14T23:49:12.559Z,99449.16
2022-08-14T23:51:39.533Z,99443.53
2022-08-14T23:54:47.386Z,99444.72
2022-08-14T23:57:00.206Z,99433.38
2022-08-14T23:59:30.212Z,99433.44
